createdAt,value
2023-04-18T00:01:21.443Z,28.86
2023-04-18T00:03:52.131Z,29.87
2023-04-18T00:06:22.166Z,28.98
2023-04-18T00:08:50.207Z,28.73
2023-04-18T00:11:18.128Z,29.35
2023-04-18T00:13:47.397Z,28.57
2023-04-18T00:16:15.722Z,30.28
2023-04-18T00:18:43.374Z,29.27
2023-04-18T00:21:11.157Z,30.22
2023-04-18T00:23:39.839Z,30.57
2023-04-18T00:26:07.422Z,29.60
2023-04-18T00:28:35.198Z,31.16
2023-04-18T00:31:03.470Z,29.62
2023-04-18T00:33:32.610Z,29.63
2023-04-18T00:36:00.238Z,28.45
2023-04-18T00:38:27.836Z,27.73
2023-04-18T00:40:55.465Z,28.68
2023-04-18T00:43:26.828Z,28.41
2023-04-18T00:45:54.468Z,28.68
2023-04-18T00:48:23.698Z,29.08
2023-04-18T00:50:53.858Z,29.00
2023-04-18T00:53:22.330Z,29.96
2023-04-18T00:55:50.559Z,28.59
2023-04-18T00:58:18.199Z,28.06
2023-04-18T01:00:46.222Z,28.04
2023-04-18T01:03:14.549Z,28.37
2023-04-18T01:05:42.417Z,28.02
2023-04-18T01:08:10.714Z,28.37
2023-04-18T01:10:38.424Z,27.39
2023-04-18T01:13:17.176Z,27.40
2023-04-18T01:15:50.001Z,27.72
2023-04-18T01:18:18.077Z,28.33
2023-04-18T01:20:49.797Z,26.97
2023-04-18T01:23:19.157Z,27.03
2023-04-18T01:25:49.334Z,27.78
2023-04-18T01:28:21.332Z,28.05
2023-04-18T01:30:49.656Z,27.36
2023-04-18T01:33:17.559Z,26.78
2023-04-18T01:35:47.901Z,27.41
2023-04-18T01:38:15.509Z,26.79
2023-04-18T01:40:43.063Z,26.48
2023-04-18T01:43:10.689Z,26.21
2023-04-18T01:45:38.775Z,26.53
2023-04-18T01:48:06.534Z,26.13
2023-04-18T01:50:34.176Z,25.36
2023-04-18T01:53:01.725Z,25.85
2023-04-18T01:55:29.242Z,25.56
2023-04-18T01:57:56.763Z,25.18
2023-04-18T02:00:24.426Z,26.41
2023-04-18T02:02:52.007Z,25.44
2023-04-18T02:05:21.667Z,27.02
2023-04-18T02:07:50.326Z,26.19
2023-04-18T02:10:18.970Z,26.06
2023-04-18T02:12:46.745Z,25.34
2023-04-18T02:15:14.262Z,24.68
2023-04-18T02:17:42.166Z,25.16
2023-04-18T02:20:10.900Z,24.87
2023-04-18T02:22:39.526Z,24.54
2023-04-18T02:25:07.937Z,24.45
2023-04-18T02:27:35.559Z,25.42
2023-04-18T02:30:03.544Z,24.62
2023-04-18T02:32:34.304Z,25.16
2023-04-18T02:35:01.935Z,25.95
2023-04-18T02:37:29.781Z,26.06
2023-04-18T02:39:57.560Z,26.52
2023-04-18T02:42:25.216Z,26.13
2023-04-18T02:44:52.966Z,26.14
2023-04-18T02:47:20.641Z,25.92
2023-04-18T02:49:48.498Z,26.51
2023-04-18T02:52:16.277Z,25.90
2023-04-18T02:54:43.939Z,26.42
2023-04-18T02:57:16.234Z,25.53
2023-04-18T03:00:02.434Z,26.65
2023-04-18T03:02:48.138Z,26.17
2023-04-18T03:05:32.958Z,25.99
2023-04-18T03:08:03.708Z,27.31
2023-04-18T03:10:31.499Z,26.50
2023-04-18T03:12:59.214Z,25.98
2023-04-18T03:15:28.090Z,25.78
2023-04-18T03:17:55.987Z,26.13
2023-04-18T03:20:24.412Z,27.04
2023-04-18T03:22:53.106Z,27.06
2023-04-18T03:25:24.881Z,27.29
2023-04-18T03:27:54.181Z,27.39
2023-04-18T03:30:23.697Z,27.49
2023-04-18T03:32:56.228Z,27.12
2023-04-18T03:35:23.940Z,27.38
2023-04-18T03:37:52.392Z,27.86
2023-04-18T03:40:25.578Z,29.15
2023-04-18T03:42:56.198Z,28.97
2023-04-18T03:45:23.830Z,28.53
2023-04-18T03:47:51.640Z,28.73
2023-04-18T03:50:20.770Z,28.74
2023-04-18T03:52:50.249Z,28.62
2023-04-18T03:55:19.735Z,29.82
2023-04-18T03:57:47.882Z,28.33
2023-04-18T04:00:22.568Z,28.00
2023-04-18T04:03:00.517Z,28.30
2023-04-18T04:05:28.324Z,28.65
2023-04-18T04:07:56.594Z,28.75
2023-04-18T04:10:24.542Z,28.77
2023-04-18T04:12:52.614Z,29.63
2023-04-18T04:15:20.832Z,29.78
2023-04-18T04:17:56.948Z,29.99
2023-04-18T04:20:25.813Z,28.85
2023-04-18T04:23:02.128Z,28.64
2023-04-18T04:25:33.301Z,29.45
2023-04-18T04:28:06.803Z,28.82
2023-04-18T04:30:42.338Z,29.00
2023-04-18T04:33:10.209Z,29.67
2023-04-18T04:35:54.563Z,28.44
2023-04-18T04:38:27.529Z,28.36
2023-04-18T04:40:55.869Z,30.36
2023-04-18T04:43:24.347Z,30.30
2023-04-18T04:45:53.144Z,29.83
2023-04-18T04:48:24.994Z,29.33
2023-04-18T04:50:56.350Z,28.92
2023-04-18T04:53:26.158Z,30.04
2023-04-18T04:55:54.031Z,29.49
2023-04-18T04:58:23.236Z,27.58
2023-04-18T05:01:09.294Z,27.30
2023-04-18T05:03:58.196Z,28.59
2023-04-18T05:06:26.586Z,27.28
2023-04-18T05:08:56.770Z,27.32
2023-04-18T05:11:24.808Z,27.95
2023-04-18T05:13:52.739Z,27.26
2023-04-18T05:16:21.056Z,26.59
2023-04-18T05:18:49.022Z,27.17
2023-04-18T05:21:17.300Z,26.68
2023-04-18T05:23:45.302Z,26.55
2023-04-18T05:26:13.250Z,26.35
2023-04-18T05:28:41.520Z,26.14
2023-04-18T05:31:09.674Z,27.58
2023-04-18T05:33:37.879Z,27.30
2023-04-18T05:36:06.732Z,27.44
2023-04-18T05:38:34.653Z,29.45
2023-04-18T05:41:03.097Z,27.40
2023-04-18T05:43:31.458Z,26.31
2023-04-18T05:46:00.742Z,28.04
2023-04-18T05:48:28.792Z,26.51
2023-04-18T05:50:57.900Z,26.42
2023-04-18T05:53:25.654Z,26.08
2023-04-18T05:55:53.401Z,26.26
2023-04-18T05:58:20.927Z,26.24
2023-04-18T06:00:48.547Z,27.97
2023-04-18T06:03:16.736Z,26.75
2023-04-18T06:05:44.826Z,26.54
2023-04-18T06:08:12.366Z,27.95
2023-04-18T06:10:39.921Z,27.48
2023-04-18T06:13:07.528Z,27.67
2023-04-18T06:15:35.730Z,25.93
2023-04-18T06:18:03.449Z,25.61
2023-04-18T06:20:31.155Z,25.37
2023-04-18T06:22:58.833Z,25.88
2023-04-18T06:25:26.424Z,25.21
2023-04-18T06:27:54.068Z,25.52
2023-04-18T06:30:22.275Z,25.92
2023-04-18T06:32:49.996Z,25.55
2023-04-18T06:35:17.897Z,25.76
2023-04-18T06:37:45.915Z,26.00
2023-04-18T06:40:13.857Z,25.31
2023-04-18T06:42:42.503Z,26.17
2023-04-18T06:45:13.338Z,24.65
2023-04-18T06:47:41.250Z,26.00
2023-04-18T06:50:09.415Z,25.72
2023-04-18T06:52:40.674Z,25.21
2023-04-18T06:55:09.378Z,24.74
2023-04-18T06:57:43.401Z,23.00
2023-04-18T07:00:11.654Z,23.80
2023-04-18T07:02:40.100Z,23.64
2023-04-18T07:05:08.571Z,24.29
2023-04-18T07:07:36.184Z,24.09
2023-04-18T07:10:04.375Z,25.26
2023-04-18T07:12:31.994Z,25.07
2023-04-18T07:14:59.639Z,23.34
2023-04-18T07:17:27.287Z,23.60
2023-04-18T07:19:55.031Z,24.74
2023-04-18T07:22:22.572Z,23.15
2023-04-18T07:24:50.988Z,24.95
2023-04-18T07:27:18.633Z,23.58
2023-04-18T07:29:46.179Z,23.16
2023-04-18T07:32:13.836Z,21.60
2023-04-18T07:34:41.896Z,22.81
2023-04-18T07:37:09.503Z,22.57
2023-04-18T07:39:37.254Z,22.16
2023-04-18T07:42:04.827Z,23.65
2023-04-18T07:44:35.190Z,23.32
2023-04-18T07:47:03.272Z,24.44
2023-04-18T07:49:30.811Z,24.06
2023-04-18T07:51:58.717Z,23.58
2023-04-18T07:54:26.391Z,21.61
2023-04-18T07:56:53.995Z,21.96
2023-04-18T07:59:21.579Z,22.00
2023-04-18T08:01:49.165Z,23.37
2023-04-18T08:04:16.891Z,22.36
2023-04-18T08:06:44.489Z,22.15
2023-04-18T08:09:12.587Z,22.38
2023-04-18T08:11:42.498Z,21.55
2023-04-18T08:14:11.608Z,22.12
2023-04-18T08:16:39.510Z,22.45
2023-04-18T08:19:07.064Z,22.86
2023-04-18T08:21:34.809Z,23.65
2023-04-18T08:24:02.572Z,23.36
2023-04-18T08:26:30.114Z,23.49
2023-04-18T08:28:57.790Z,23.75
2023-04-18T08:31:25.872Z,21.67
2023-04-18T08:33:53.484Z,22.15
2023-04-18T08:36:21.499Z,20.71
2023-04-18T08:38:49.134Z,20.70
2023-04-18T08:41:21.805Z,20.09
2023-04-18T08:43:49.680Z,18.32
2023-04-18T08:46:17.460Z,18.95
2023-04-18T08:48:45.108Z,17.54
2023-04-18T08:51:12.684Z,18.41
2023-04-18T08:53:41.991Z,18.17
2023-04-18T08:56:10.564Z,19.67
2023-04-18T08:58:38.917Z,20.58
2023-04-18T09:01:07.300Z,21.34
2023-04-18T09:03:43.177Z,19.26
2023-04-18T09:06:19.298Z,19.24
2023-04-18T09:08:59.041Z,20.17
2023-04-18T09:11:29.400Z,21.29
2023-04-18T09:14:02.390Z,19.21
2023-04-18T09:16:46.968Z,19.02
2023-04-18T09:19:18.576Z,19.27
2023-04-18T09:21:47.203Z,17.90
2023-04-18T09:24:22.292Z,17.25
2023-04-18T09:26:53.763Z,18.17
2023-04-18T09:29:43.463Z,16.71
2023-04-18T09:32:11.246Z,18.16
2023-04-18T09:34:42.559Z,18.51
2023-04-18T09:37:14.165Z,18.81
2023-04-18T09:39:44.012Z,19.59
2023-04-18T09:42:12.762Z,19.25
2023-04-18T09:45:09.413Z,18.30
2023-04-18T09:47:37.494Z,18.18
2023-04-18T09:50:10.547Z,19.57
2023-04-18T09:52:41.326Z,19.67
2023-04-18T09:55:19.104Z,16.91
2023-04-18T09:57:48.336Z,18.78
2023-04-18T10:00:24.463Z,17.34
2023-04-18T10:02:52.280Z,18.61
2023-04-18T10:05:21.925Z,17.69
2023-04-18T10:07:51.108Z,17.82
2023-04-18T10:10:19.178Z,19.03
2023-04-18T10:12:48.769Z,18.87
2023-04-18T10:15:18.114Z,19.96
2023-04-18T10:18:04.289Z,19.53
2023-04-18T10:20:35.513Z,20.48
2023-04-18T10:23:30.987Z,19.12
2023-04-18T10:25:59.380Z,20.86
2023-04-18T10:28:28.213Z,19.87
2023-04-18T10:31:03.789Z,20.27
2023-04-18T10:33:34.334Z,19.68
2023-04-18T10:36:14.919Z,18.18
2023-04-18T10:38:50.834Z,18.58
2023-04-18T10:41:25.294Z,19.34
2023-04-18T10:44:11.474Z,19.54
2023-04-18T10:46:43.537Z,21.01
2023-04-18T10:49:27.023Z,17.80
2023-04-18T10:51:58.685Z,18.29
2023-04-18T10:54:30.898Z,18.73
2023-04-18T10:57:03.638Z,18.88
2023-04-18T10:59:33.032Z,17.30
2023-04-18T11:02:10.941Z,17.58
2023-04-18T11:04:39.366Z,16.68
2023-04-18T11:07:06.893Z,15.99
2023-04-18T11:09:34.554Z,15.92
2023-04-18T11:12:07.108Z,17.15
2023-04-18T11:14:41.504Z,17.65
2023-04-18T11:17:29.152Z,17.58
2023-04-18T11:20:09.266Z,18.35
2023-04-18T11:22:53.155Z,16.98
2023-04-18T11:25:28.170Z,17.85
2023-04-18T11:27:59.420Z,17.93
2023-04-18T11:30:27.784Z,18.55
2023-04-18T11:32:56.075Z,17.86
2023-04-18T11:35:23.794Z,18.49
2023-04-18T11:37:52.105Z,17.93
2023-04-18T11:40:20.333Z,17.83
2023-04-18T11:42:47.928Z,17.33
2023-04-18T11:45:15.998Z,17.33
2023-04-18T11:47:45.055Z,16.94
2023-04-18T11:50:15.990Z,17.04
2023-04-18T11:52:43.629Z,18.22
2023-04-18T11:55:21.691Z,18.17
2023-04-18T11:57:57.240Z,18.25
2023-04-18T12:00:37.672Z,18.68
2023-04-18T12:03:12.637Z,17.47
2023-04-18T12:05:44.784Z,17.00
2023-04-18T12:08:17.337Z,17.76
2023-04-18T12:10:52.697Z,17.90
2023-04-18T12:13:32.822Z,17.21
2023-04-18T12:16:02.489Z,16.60
2023-04-18T12:18:31.405Z,17.55
2023-04-18T12:21:02.367Z,17.89
2023-04-18T12:23:36.019Z,17.72
2023-04-18T12:26:06.151Z,17.01
2023-04-18T12:28:35.232Z,15.84
2023-04-18T12:31:05.903Z,16.00
2023-04-18T12:33:35.836Z,16.77
2023-04-18T12:36:05.440Z,15.90
2023-04-18T12:38:33.097Z,15.71
2023-04-18T12:41:00.854Z,14.77
2023-04-18T12:43:28.534Z,15.44
2023-04-18T12:45:56.503Z,15.98
2023-04-18T12:48:24.436Z,15.83
2023-04-18T12:50:51.991Z,15.69
2023-04-18T12:53:19.701Z,16.54
2023-04-18T12:55:47.299Z,16.03
2023-04-18T12:58:18.570Z,16.53
2023-04-18T13:00:46.481Z,17.28
2023-04-18T13:03:14.528Z,17.33
2023-04-18T13:05:42.158Z,17.45
2023-04-18T13:08:16.876Z,16.83
2023-04-18T13:10:47.395Z,16.90
2023-04-18T13:13:15.154Z,17.62
2023-04-18T13:15:43.311Z,16.62
2023-04-18T13:18:10.955Z,17.47
2023-04-18T13:20:38.525Z,17.96
2023-04-18T13:23:06.049Z,16.58
2023-04-18T13:25:33.678Z,15.67
2023-04-18T13:28:01.582Z,16.11
2023-04-18T13:30:29.306Z,15.19
2023-04-18T13:32:57.185Z,15.92
2023-04-18T13:35:24.737Z,15.78
2023-04-18T13:37:52.284Z,14.51
2023-04-18T13:40:20.039Z,12.33
2023-04-18T13:42:47.865Z,10.87
2023-04-18T13:45:15.915Z,10.59
2023-04-18T13:47:43.650Z,9.79
2023-04-18T13:50:11.259Z,9.97
2023-04-18T13:52:38.988Z,9.31
2023-04-18T13:55:07.140Z,9.26
2023-04-18T13:57:36.937Z,10.27
2023-04-18T14:00:06.626Z,11.88
2023-04-18T14:02:40.273Z,13.77
2023-04-18T14:05:08.460Z,11.31
2023-04-18T14:07:38.364Z,13.17
2023-04-18T14:10:06.707Z,13.61
2023-04-18T14:12:34.587Z,14.21
2023-04-18T14:15:02.097Z,12.72
2023-04-18T14:17:30.196Z,10.77
2023-04-18T14:19:57.740Z,10.07
2023-04-18T14:22:25.729Z,9.13
2023-04-18T14:24:54.558Z,10.28
2023-04-18T14:27:22.089Z,10.25
2023-04-18T14:29:50.054Z,12.17
2023-04-18T14:32:18.097Z,10.55
2023-04-18T14:34:45.601Z,9.85
2023-04-18T14:37:14.981Z,9.15
2023-04-18T14:39:43.245Z,9.30
2023-04-18T14:42:11.000Z,9.07
2023-04-18T14:44:38.583Z,9.08
2023-04-18T14:47:06.278Z,8.67
2023-04-18T14:49:34.012Z,7.93
2023-04-18T14:52:01.846Z,8.91
2023-04-18T14:54:31.014Z,8.91
2023-04-18T14:57:01.190Z,8.49
2023-04-18T14:59:28.900Z,9.64
2023-04-18T15:01:56.532Z,9.34
2023-04-18T15:04:24.357Z,9.06
2023-04-18T15:06:51.975Z,10.79
2023-04-18T15:09:19.512Z,9.82
2023-04-18T15:11:47.028Z,11.64
2023-04-18T15:14:14.684Z,12.04
2023-04-18T15:16:42.364Z,12.28
2023-04-18T15:19:09.976Z,12.12
2023-04-18T15:21:37.751Z,12.72
2023-04-18T15:24:05.514Z,12.74
2023-04-18T15:26:33.426Z,14.12
2023-04-18T15:29:03.754Z,13.74
2023-04-18T15:31:31.459Z,14.12
2023-04-18T15:33:59.043Z,14.02
2023-04-18T15:36:28.004Z,14.31
2023-04-18T15:38:56.024Z,14.74
2023-04-18T15:41:23.774Z,14.75
2023-04-18T15:43:52.834Z,14.63
2023-04-18T15:46:20.694Z,15.26
2023-04-18T15:48:48.555Z,15.44
2023-04-18T15:51:16.645Z,16.12
2023-04-18T15:53:44.571Z,15.14
2023-04-18T15:56:12.764Z,14.51
2023-04-18T15:58:40.608Z,15.63
2023-04-18T16:01:08.440Z,15.62
2023-04-18T16:03:36.258Z,14.16
2023-04-18T16:06:04.623Z,14.59
2023-04-18T16:08:33.390Z,14.71
2023-04-18T16:11:01.552Z,14.63
2023-04-18T16:13:29.410Z,14.80
2023-04-18T16:15:57.058Z,14.50
2023-04-18T16:18:24.650Z,13.72
2023-04-18T16:20:52.299Z,15.02
2023-04-18T16:23:20.547Z,14.96
2023-04-18T16:25:48.612Z,15.04
2023-04-18T16:28:16.309Z,14.51
2023-04-18T16:30:45.662Z,15.59
2023-04-18T16:33:13.437Z,16.11
2023-04-18T16:35:41.311Z,14.85
2023-04-18T16:38:08.929Z,15.05
2023-04-18T16:40:37.994Z,15.03
2023-04-18T16:43:05.722Z,15.67
2023-04-18T16:45:33.360Z,14.66
2023-04-18T16:48:01.032Z,15.01
2023-04-18T16:50:29.259Z,14.95
2023-04-18T16:52:57.004Z,15.12
2023-04-18T16:55:24.548Z,14.63
2023-04-18T16:57:52.060Z,14.06
2023-04-18T17:00:19.882Z,14.65
2023-04-18T17:02:48.417Z,15.00
2023-04-18T17:05:16.296Z,14.62
2023-04-18T17:07:45.593Z,15.07
2023-04-18T17:10:13.311Z,14.91
2023-04-18T17:12:41.015Z,15.35
2023-04-18T17:15:09.398Z,14.95
2023-04-18T17:17:37.143Z,15.23
2023-04-18T17:20:07.813Z,14.59
2023-04-18T17:22:35.618Z,15.23
2023-04-18T17:25:03.943Z,15.23
2023-04-18T17:27:31.734Z,15.96
2023-04-18T17:29:59.636Z,15.68
2023-04-18T17:32:27.303Z,15.73
2023-04-18T17:34:55.860Z,15.94
2023-04-18T17:37:23.651Z,16.53
2023-04-18T17:39:51.629Z,16.45
2023-04-18T17:42:19.842Z,16.96
2023-04-18T17:44:47.632Z,17.08
2023-04-18T17:47:15.398Z,17.47
2023-04-18T17:49:44.209Z,17.18
2023-04-18T17:52:12.065Z,16.78
2023-04-18T17:54:39.946Z,17.01
2023-04-18T17:57:07.738Z,16.56
2023-04-18T17:59:37.754Z,17.01
2023-04-18T18:02:05.922Z,17.19
2023-04-18T18:04:33.854Z,17.06
2023-04-18T18:07:01.698Z,17.07
2023-04-18T18:09:29.563Z,17.81
2023-04-18T18:11:58.652Z,17.21
2023-04-18T18:14:26.890Z,18.49
2023-04-18T18:16:54.942Z,18.63
2023-04-18T18:19:22.946Z,18.95
2023-04-18T18:21:51.252Z,18.76
2023-04-18T18:24:19.104Z,19.04
2023-04-18T18:26:47.043Z,19.06
2023-04-18T18:29:19.244Z,18.88
2023-04-18T18:31:47.125Z,18.66
2023-04-18T18:34:14.773Z,20.63
2023-04-18T18:36:42.769Z,19.59
2023-04-18T18:39:11.689Z,20.53
2023-04-18T18:41:40.443Z,19.90
2023-04-18T18:44:08.507Z,19.84
2023-04-18T18:46:36.674Z,19.79
2023-04-18T18:49:04.668Z,19.60
2023-04-18T18:51:32.930Z,20.24
2023-04-18T18:54:01.004Z,20.45
2023-04-18T18:56:29.245Z,20.14
2023-04-18T18:58:57.038Z,20.36
2023-04-18T19:01:24.869Z,20.45
2023-04-18T19:03:52.973Z,20.45
2023-04-18T19:06:20.891Z,21.12
2023-04-18T19:08:51.758Z,21.71
2023-04-18T19:11:19.644Z,21.03
2023-04-18T19:13:47.547Z,21.76
2023-04-18T19:16:15.567Z,21.33
2023-04-18T19:18:47.063Z,21.70
2023-04-18T19:21:15.927Z,21.83
2023-04-18T19:23:44.891Z,21.86
2023-04-18T19:26:12.891Z,22.40
2023-04-18T19:28:44.326Z,22.71
2023-04-18T19:31:11.878Z,22.40
2023-04-18T19:33:39.810Z,22.02
2023-04-18T19:36:07.953Z,21.55
2023-04-18T19:38:36.098Z,20.85
2023-04-18T19:41:03.985Z,21.55
2023-04-18T19:43:31.910Z,21.41
2023-04-18T19:46:00.133Z,20.72
2023-04-18T19:48:28.139Z,20.97
2023-04-18T19:50:59.026Z,20.45
2023-04-18T19:53:26.600Z,19.58
2023-04-18T19:55:55.023Z,19.53
2023-04-18T19:58:44.712Z,18.44
2023-04-18T20:01:14.482Z,18.42
2023-04-18T20:03:42.558Z,18.95
2023-04-18T20:06:10.447Z,18.72
2023-04-18T20:08:43.084Z,20.18
2023-04-18T20:11:12.206Z,18.57
2023-04-18T20:13:40.759Z,19.25
2023-04-18T20:16:09.124Z,18.35
2023-04-18T20:18:39.238Z,17.80
2023-04-18T20:21:09.948Z,18.20
2023-04-18T20:23:38.274Z,19.43
2023-04-18T20:26:15.973Z,17.47
2023-04-18T20:28:43.556Z,18.63
2023-04-18T20:31:12.526Z,19.10
2023-04-18T20:33:40.501Z,18.50
2023-04-18T20:36:08.520Z,18.58
2023-04-18T20:38:36.848Z,18.57
2023-04-18T20:41:04.717Z,19.19
2023-04-18T20:43:36.648Z,18.91
2023-04-18T20:46:04.529Z,18.35
2023-04-18T20:48:32.256Z,17.84
2023-04-18T20:51:00.142Z,18.17
2023-04-18T20:53:28.998Z,18.56
2023-04-18T20:55:56.505Z,18.18
2023-04-18T20:58:24.079Z,18.21
2023-04-18T21:00:52.176Z,18.69
2023-04-18T21:03:20.620Z,18.45
2023-04-18T21:05:48.725Z,18.43
2023-04-18T21:08:16.225Z,19.00
2023-04-18T21:10:43.986Z,18.90
2023-04-18T21:13:12.802Z,19.99
2023-04-18T21:15:42.066Z,18.82
2023-04-18T21:18:09.886Z,19.31
2023-04-18T21:20:37.499Z,19.34
2023-04-18T21:23:05.318Z,19.06
2023-04-18T21:25:32.854Z,19.61
2023-04-18T21:28:00.952Z,20.16
2023-04-18T21:30:28.553Z,20.06
2023-04-18T21:32:56.149Z,19.51
2023-04-18T21:35:24.910Z,19.54
2023-04-18T21:37:52.879Z,19.72
2023-04-18T21:40:20.587Z,19.39
2023-04-18T21:42:50.970Z,19.53
2023-04-18T21:45:18.978Z,18.61
2023-04-18T21:47:46.901Z,18.93
2023-04-18T21:50:14.680Z,18.37
2023-04-18T21:52:42.333Z,18.65
2023-04-18T21:55:09.950Z,19.21
2023-04-18T21:57:37.525Z,20.07
2023-04-18T22:00:08.507Z,19.29
2023-04-18T22:02:37.633Z,19.29
2023-04-18T22:05:05.782Z,18.59
2023-04-18T22:07:43.253Z,19.10
2023-04-18T22:10:18.428Z,18.88
2023-04-18T22:12:46.249Z,18.89
2023-04-18T22:15:13.723Z,18.36
2023-04-18T22:17:42.448Z,18.50
2023-04-18T22:20:11.230Z,19.42
2023-04-18T22:22:38.914Z,18.83
2023-04-18T22:25:07.340Z,19.48
2023-04-18T22:27:34.875Z,18.50
2023-04-18T22:30:02.730Z,19.38
2023-04-18T22:32:30.963Z,18.96
2023-04-18T22:34:58.469Z,20.17
2023-04-18T22:37:26.027Z,19.37
2023-04-18T22:39:53.737Z,18.75
2023-04-18T22:42:21.295Z,19.16
2023-04-18T22:44:49.085Z,19.04
2023-04-18T22:47:16.797Z,18.77
2023-04-18T22:49:44.469Z,18.50
2023-04-18T22:52:12.307Z,18.59
2023-04-18T22:54:40.352Z,18.45
2023-04-18T22:57:08.223Z,18.03
2023-04-18T22:59:35.888Z,18.36
2023-04-18T23:02:03.791Z,18.04
2023-04-18T23:04:32.972Z,18.54
2023-04-18T23:07:00.536Z,19.14
2023-04-18T23:09:30.420Z,18.22
2023-04-18T23:11:58.225Z,17.88
2023-04-18T23:14:25.834Z,18.72
2023-04-18T23:16:53.362Z,18.84
2023-04-18T23:19:20.960Z,18.25
2023-04-18T23:21:49.695Z,17.94
2023-04-18T23:24:17.467Z,18.15
2023-04-18T23:26:45.348Z,18.53
2023-04-18T23:29:12.937Z,18.18
2023-04-18T23:31:41.762Z,18.48
2023-04-18T23:34:10.679Z,17.79
2023-04-18T23:36:40.432Z,18.06
2023-04-18T23:39:09.095Z,17.50
2023-04-18T23:41:36.859Z,17.69
2023-04-18T23:44:04.679Z,17.85
2023-04-18T23:46:33.404Z,18.04
2023-04-18T23:49:03.180Z,18.11
2023-04-18T23:51:31.553Z,18.92
2023-04-18T23:53:59.140Z,18.16
2023-04-18T23:56:26.693Z,18.56
2023-04-18T23:58:54.567Z,18.48
